Gladstone, Missouri
Current Conditions -  °F | °C
As of 4:37 AM on Saturday 25 Oct 2014 (Local Time) from KMKC Reporting Station
Haze Haze  
Wind Chill: 60°   Ceiling: 600
Heat Index: 60°   Visibility: 0.75mi
Dew Point: 59°   Wind: 0mph
Humidity: 96%   Direction: NA
Pressure: 30.01"   Gusts: NA
Location:  39.22°N, 94.58°W
Report Text: KMKC 250937Z 00000KT 3/4SM BR VV006 16/15 A3001 RMK AO2 T01560150
Loading
Personal Weather Stations






























Interactive Weather Map
Tropical Storm Tracking
New forecast layout! Learn more

10-Day Weather Forecast

Advertisements
Track Severe Weather on mobile